Kitty C — 2EIQ6 — position and weather

sailwx.info

Track history (hours):
 
Tides and Currents Weather Stations Pressure Air Temp Water Temp Dewpoint Dewpoint Depression Visibility Wind Speed Wind Dir Waves Ship Positions

Kitty C

Last reported at 2018-Feb-24 16:42 UTC. Time now 2018-Feb-25 19:43 UTC.
Position N 36°27' E 014°36'.

Length 106 m; draft 6.4 m.

Type: Cargo ship. MMSI: 235085464.

Date/timePositionNaut miles runAvg speedWind from/ knotsBaromVisibWave heightAir tempDewpointWater temp
2018-Feb-24 16:42N 36°27' E 014°36'410.1
2018-Feb-24 16:19N 36°28' E 014°31'310.0
2018-Feb-24 15:58N 36°29' E 014°27'1210.0
2018-Feb-24 14:48N 36°33' E 014°13'  
2018-Feb-20 08:55N 35°60' W 005°13'512.0
2018-Feb-20 08:30N 36°03' W 005°18'7 3.7
2018-Feb-20 06:43N 36°09' W 005°22'0 0.1
2018-Feb-20 02:01N 36°09' W 005°22'0 2.5
2018-Feb-20 02:00N 36°09' W 005°22'2 4.2
2018-Feb-20 01:28N 36°06' W 005°22'4 7.8
2018-Feb-20 00:57N 36°02' W 005°22'4 8.6
2018-Feb-20 00:30N 35°59' W 005°25'5 9.7
2018-Feb-20 00:00N 35°57' W 005°30'225 8.8
2018-Feb-18 22:22N 37°31' W 009°45'410.1
2018-Feb-18 22:00N 37°34' W 009°46'5 9.9
2018-Feb-18 21:29N 37°39' W 009°48'510.0
2018-Feb-18 21:00N 37°44' W 009°49'510.1
2018-Feb-18 20:30N 37°49' W 009°50'510.1
2018-Feb-18 20:00N 37°54' W 009°52'510.3
2018-Feb-18 19:30N 37°59' W 009°53'510.2
2018-Feb-18 19:00N 38°04' W 009°55'510.3
2018-Feb-18 18:30N 38°09' W 009°56'510.1
2018-Feb-18 18:00N 38°14' W 009°58'510.4
2018-Feb-18 17:30N 38°19' W 009°59'510.5
2018-Feb-18 17:01N 38°24' W 010°00'510.6
2018-Feb-18 16:30N 38°29' W 010°02'510.4
2018-Feb-18 16:00N 38°34' W 010°04'510.3
2018-Feb-18 15:31N 38°39' W 010°05'510.1
2018-Feb-18 15:00N 38°44' W 010°05'5 9.9
2018-Feb-18 14:30N 38°49' W 010°05'5 9.7
2018-Feb-18 14:01N 38°54' W 010°05'5 9.5
2018-Feb-18 13:31N 38°59' W 010°04'5 9.9
2018-Feb-18 13:01N 39°03' W 010°02'5 9.7
2018-Feb-18 12:30N 39°08' W 010°00'5 9.8
2018-Feb-18 12:00N 39°13' W 009°59'5 9.9
2018-Feb-18 11:30N 39°18' W 009°57'  
2018-Feb-15 09:35N 39°20' W 009°50'2 9.6
2018-Feb-15 09:25N 39°18' W 009°50'4 9.6
2018-Feb-15 09:00N 39°14' W 009°50'5 9.6
2018-Feb-15 08:30N 39°09' W 009°50'5 9.7
2018-Feb-15 08:00N 39°04' W 009°50'5 9.9
2018-Feb-15 07:30N 38°59' W 009°51'510.1
2018-Feb-15 06:59N 38°54' W 009°51'5 9.7
2018-Feb-15 06:30N 38°49' W 009°50'510.0
2018-Feb-15 06:00N 38°44' W 009°50'5 9.9
2018-Feb-15 05:31N 38°40' W 009°49'510.0
2018-Feb-15 05:00N 38°35' W 009°48'510.1
2018-Feb-15 04:30N 38°30' W 009°46'5 9.7
2018-Feb-15 04:00N 38°25' W 009°45'5 9.8
2018-Feb-15 03:31N 38°20' W 009°44'5 9.7
2018-Feb-15 03:00N 38°15' W 009°42'6 9.6
2018-Feb-15 02:25N 38°10' W 009°41'4 9.9
2018-Feb-15 02:00N 38°06' W 009°39'5 9.7
2018-Feb-15 01:30N 38°01' W 009°37'5 9.4
2018-Feb-15 00:55N 37°56' W 009°35'4 9.8
2018-Feb-15 00:30N 37°52' W 009°34'5 9.6
2018-Feb-14 23:59N 37°47' W 009°33'5 9.7
2018-Feb-14 23:31N 37°43' W 009°31'5 9.4
2018-Feb-14 23:00N 37°38' W 009°29'  
Track history (hours):
 
Tides and Currents Weather Stations Pressure Air Temp Water Temp Dewpoint Dewpoint Depression Visibility Wind Speed Wind Dir Waves Ship Positions

Kitty C

Last reported at 2018-Feb-24 16:42 UTC. Time now 2018-Feb-25 19:43 UTC.
Position N 36°27' E 014°36'.

Length 106 m; draft 6.4 m.

Type: Cargo ship. MMSI: 235085464.

Date/timePositionNaut miles runAvg speedWind from/ knotsBaromVisibWave heightAir tempDewpointWater temp
2018-Feb-24 16:42N 36°27' E 014°36'410.1
2018-Feb-24 16:19N 36°28' E 014°31'310.0
2018-Feb-24 15:58N 36°29' E 014°27'1210.0
2018-Feb-24 14:48N 36°33' E 014°13'  
2018-Feb-20 08:55N 35°60' W 005°13'512.0
2018-Feb-20 08:30N 36°03' W 005°18'7 3.7
2018-Feb-20 06:43N 36°09' W 005°22'0 0.1
2018-Feb-20 02:01N 36°09' W 005°22'0 2.5
2018-Feb-20 02:00N 36°09' W 005°22'2 4.2
2018-Feb-20 01:28N 36°06' W 005°22'4 7.8
2018-Feb-20 00:57N 36°02' W 005°22'4 8.6
2018-Feb-20 00:30N 35°59' W 005°25'5 9.7
2018-Feb-20 00:00N 35°57' W 005°30'225 8.8
2018-Feb-18 22:22N 37°31' W 009°45'410.1
2018-Feb-18 22:00N 37°34' W 009°46'5 9.9
2018-Feb-18 21:29N 37°39' W 009°48'510.0
2018-Feb-18 21:00N 37°44' W 009°49'510.1
2018-Feb-18 20:30N 37°49' W 009°50'510.1
2018-Feb-18 20:00N 37°54' W 009°52'510.3
2018-Feb-18 19:30N 37°59' W 009°53'510.2
2018-Feb-18 19:00N 38°04' W 009°55'510.3
2018-Feb-18 18:30N 38°09' W 009°56'510.1
2018-Feb-18 18:00N 38°14' W 009°58'510.4
2018-Feb-18 17:30N 38°19' W 009°59'510.5
2018-Feb-18 17:01N 38°24' W 010°00'510.6
2018-Feb-18 16:30N 38°29' W 010°02'510.4
2018-Feb-18 16:00N 38°34' W 010°04'510.3
2018-Feb-18 15:31N 38°39' W 010°05'510.1
2018-Feb-18 15:00N 38°44' W 010°05'5 9.9
2018-Feb-18 14:30N 38°49' W 010°05'5 9.7
2018-Feb-18 14:01N 38°54' W 010°05'5 9.5
2018-Feb-18 13:31N 38°59' W 010°04'5 9.9
2018-Feb-18 13:01N 39°03' W 010°02'5 9.7
2018-Feb-18 12:30N 39°08' W 010°00'5 9.8
2018-Feb-18 12:00N 39°13' W 009°59'5 9.9
2018-Feb-18 11:30N 39°18' W 009°57'  
2018-Feb-15 09:35N 39°20' W 009°50'2 9.6
2018-Feb-15 09:25N 39°18' W 009°50'4 9.6
2018-Feb-15 09:00N 39°14' W 009°50'5 9.6
2018-Feb-15 08:30N 39°09' W 009°50'5 9.7
2018-Feb-15 08:00N 39°04' W 009°50'5 9.9
2018-Feb-15 07:30N 38°59' W 009°51'510.1
2018-Feb-15 06:59N 38°54' W 009°51'5 9.7
2018-Feb-15 06:30N 38°49' W 009°50'510.0
2018-Feb-15 06:00N 38°44' W 009°50'5 9.9
2018-Feb-15 05:31N 38°40' W 009°49'510.0
2018-Feb-15 05:00N 38°35' W 009°48'510.1
2018-Feb-15 04:30N 38°30' W 009°46'5 9.7
2018-Feb-15 04:00N 38°25' W 009°45'5 9.8
2018-Feb-15 03:31N 38°20' W 009°44'5 9.7
2018-Feb-15 03:00N 38°15' W 009°42'6 9.6
2018-Feb-15 02:25N 38°10' W 009°41'4 9.9
2018-Feb-15 02:00N 38°06' W 009°39'5 9.7
2018-Feb-15 01:30N 38°01' W 009°37'5 9.4
2018-Feb-15 00:55N 37°56' W 009°35'4 9.8
2018-Feb-15 00:30N 37°52' W 009°34'5 9.6
2018-Feb-14 23:59N 37°47' W 009°33'5 9.7
2018-Feb-14 23:31N 37°43' W 009°31'5 9.4
2018-Feb-14 23:00N 37°38' W 009°29'  

Dump ship's entire track history